createdAt,value
2023-02-13T00:01:01.959Z,177.67
2023-02-13T00:03:30.292Z,179.20
2023-02-13T00:05:58.641Z,191.67
2023-02-13T00:08:26.940Z,180.47
2023-02-13T00:10:56.812Z,186.83
2023-02-13T00:13:25.463Z,191.10
2023-02-13T00:15:57.842Z,175.63
2023-02-13T00:18:26.138Z,163.67
2023-02-13T00:21:03.490Z,182.33
2023-02-13T00:23:32.285Z,172.20
2023-02-13T00:26:02.469Z,171.50
2023-02-13T00:28:30.725Z,175.50
2023-02-13T00:31:04.843Z,179.57
2023-02-13T00:33:33.194Z,176.83
2023-02-13T00:36:06.560Z,178.27
2023-02-13T00:38:34.912Z,183.97
2023-02-13T00:41:04.559Z,177.50
2023-02-13T00:43:32.896Z,174.93
2023-02-13T00:46:01.261Z,170.33
2023-02-13T00:48:30.511Z,160.30
2023-02-13T00:50:59.187Z,168.33
2023-02-13T00:53:27.728Z,186.13
2023-02-13T00:55:55.994Z,160.50
2023-02-13T00:58:25.674Z,158.23
2023-02-13T01:00:54.125Z,167.23
2023-02-13T01:03:22.492Z,161.03
2023-02-13T01:05:51.039Z,159.20
2023-02-13T01:08:19.786Z,165.67
2023-02-13T01:10:48.474Z,168.17
2023-02-13T01:13:18.528Z,163.47
2023-02-13T01:15:48.567Z,161.73
2023-02-13T01:18:17.238Z,156.70
2023-02-13T01:20:45.713Z,161.07
2023-02-13T01:23:13.986Z,168.63
2023-02-13T01:25:42.667Z,162.23
2023-02-13T01:28:11.000Z,154.77
2023-02-13T01:30:39.379Z,166.70
2023-02-13T01:33:11.023Z,167.07
2023-02-13T01:35:40.690Z,168.50
2023-02-13T01:38:08.911Z,170.53
2023-02-13T01:40:37.217Z,165.43
2023-02-13T01:43:05.429Z,165.07
2023-02-13T01:45:33.997Z,179.07
2023-02-13T01:48:05.730Z,182.03
2023-02-13T01:50:36.498Z,175.57
2023-02-13T01:53:06.932Z,166.60
2023-02-13T01:55:35.480Z,169.07
2023-02-13T01:58:06.182Z,164.70
2023-02-13T02:00:34.438Z,167.23
2023-02-13T02:03:14.013Z,162.90
2023-02-13T02:05:43.729Z,154.03
2023-02-13T02:08:13.353Z,153.63
2023-02-13T02:10:41.600Z,167.53
2023-02-13T02:13:12.412Z,155.70
2023-02-13T02:15:40.919Z,162.83
2023-02-13T02:18:14.313Z,147.47
2023-02-13T02:21:14.909Z,149.77
2023-02-13T02:23:54.096Z,166.67
2023-02-13T02:27:00.768Z,151.40
2023-02-13T02:29:52.019Z,157.10
2023-02-13T02:32:27.106Z,154.97
2023-02-13T02:34:57.895Z,184.20
2023-02-13T02:37:41.984Z,160.07
2023-02-13T02:40:15.624Z,159.70
2023-02-13T02:42:49.214Z,164.23
2023-02-13T02:45:20.505Z,168.50
2023-02-13T02:48:09.443Z,167.00
2023-02-13T02:50:39.061Z,183.27
2023-02-13T02:53:12.090Z,176.30
2023-02-13T02:55:42.685Z,180.37
2023-02-13T02:58:31.341Z,187.47
2023-02-13T03:01:17.151Z,257.10
2023-02-13T03:04:04.467Z,241.80
2023-02-13T03:06:36.106Z,202.43
2023-02-13T03:09:25.448Z,258.93
2023-02-13T03:12:11.886Z,365.30
2023-02-13T03:14:40.213Z,210.70
2023-02-13T03:17:27.641Z,240.60
2023-02-13T03:20:19.826Z,244.70
2023-02-13T03:22:56.499Z,271.60
2023-02-13T03:25:34.574Z,309.53
2023-02-13T03:28:25.330Z,265.73
2023-02-13T03:31:01.828Z,296.73
2023-02-13T03:33:37.729Z,274.63
2023-02-13T03:36:29.545Z,270.53
2023-02-13T03:38:59.513Z,372.63
2023-02-13T03:41:31.442Z,317.77
2023-02-13T03:44:12.607Z,422.53
2023-02-13T03:46:42.302Z,388.07
2023-02-13T03:49:30.515Z,501.10
2023-02-13T03:52:01.310Z,276.90
2023-02-13T03:54:49.677Z,491.53
2023-02-13T03:57:37.308Z,328.87
2023-02-13T04:00:06.872Z,679.53
2023-02-13T04:02:35.971Z,518.23
2023-02-13T04:05:08.181Z,437.10
2023-02-13T04:07:37.825Z,474.90
2023-02-13T04:10:07.504Z,564.80
2023-02-13T04:12:39.651Z,371.13
2023-02-13T04:15:10.573Z,719.87
2023-02-13T04:17:40.326Z,411.67
2023-02-13T04:20:09.459Z,694.60
2023-02-13T04:22:44.832Z,514.90
2023-02-13T04:25:13.417Z,471.90
2023-02-13T04:27:41.683Z,303.93
2023-02-13T04:30:10.981Z,648.90
2023-02-13T04:32:39.205Z,514.13
2023-02-13T04:35:07.990Z,359.43
2023-02-13T04:37:36.211Z,455.87
2023-02-13T04:40:06.778Z,796.03
2023-02-13T04:42:35.001Z,374.00
2023-02-13T04:45:03.281Z,416.23
2023-02-13T04:47:31.493Z,455.90
2023-02-13T04:49:59.783Z,507.23
2023-02-13T04:52:28.095Z,547.97
2023-02-13T04:54:56.360Z,718.73
2023-02-13T04:57:26.066Z,508.23
2023-02-13T04:59:54.343Z,658.40
2023-02-13T05:02:22.556Z,465.37
2023-02-13T05:04:50.832Z,581.60
2023-02-13T05:07:19.074Z,641.07
2023-02-13T05:09:47.373Z,431.97
2023-02-13T05:12:15.589Z,507.50
2023-02-13T05:14:45.463Z,445.17
2023-02-13T05:17:13.764Z,451.13
2023-02-13T05:19:42.048Z,446.73
2023-02-13T05:22:28.250Z,351.30
2023-02-13T05:24:56.538Z,526.10
2023-02-13T05:27:24.778Z,539.87
2023-02-13T05:29:53.475Z,746.40
2023-02-13T05:32:21.711Z,778.27
2023-02-13T05:34:49.974Z,810.43
2023-02-13T05:37:18.194Z,614.50
2023-02-13T05:39:46.525Z,952.37
2023-02-13T05:42:14.751Z,1058.20
2023-02-13T05:44:43.025Z,935.43
2023-02-13T05:47:12.701Z,618.03
2023-02-13T05:49:40.962Z,714.50
2023-02-13T05:52:09.226Z,554.63
2023-02-13T05:54:38.489Z,461.17
2023-02-13T05:57:06.737Z,846.27
2023-02-13T05:59:35.125Z,430.53
2023-02-13T06:02:03.364Z,957.27
2023-02-13T06:04:32.998Z,512.20
2023-02-13T06:07:01.339Z,451.27
2023-02-13T06:09:29.558Z,340.87
2023-02-13T06:11:57.855Z,408.50
2023-02-13T06:14:26.067Z,353.87
2023-02-13T06:16:54.304Z,350.93
2023-02-13T06:19:22.618Z,346.43
2023-02-13T06:21:52.237Z,412.10
2023-02-13T06:24:20.478Z,443.07
2023-02-13T06:26:48.701Z,438.97
2023-02-13T06:29:16.982Z,468.07
2023-02-13T06:31:45.246Z,418.83
2023-02-13T06:34:13.503Z,559.17
2023-02-13T06:36:42.731Z,439.90
2023-02-13T06:39:12.565Z,470.30
2023-02-13T06:41:40.815Z,604.60
2023-02-13T06:44:09.208Z,546.97
2023-02-13T06:46:37.618Z,475.23
2023-02-13T06:49:05.858Z,1047.87
2023-02-13T06:51:34.130Z,421.27
2023-02-13T06:54:02.723Z,613.90
2023-02-13T06:56:32.931Z,573.77
2023-02-13T06:59:01.142Z,668.70
2023-02-13T07:01:29.481Z,608.47
2023-02-13T07:03:57.860Z,843.90
2023-02-13T07:06:26.118Z,334.53
2023-02-13T07:08:55.982Z,493.17
2023-02-13T07:11:24.995Z,525.70
2023-02-13T07:13:54.676Z,323.33
2023-02-13T07:16:22.993Z,313.97
2023-02-13T07:18:51.264Z,331.03
2023-02-13T07:21:19.501Z,226.73
2023-02-13T07:23:47.743Z,154.83
2023-02-13T07:26:16.291Z,232.63
2023-02-13T07:28:44.629Z,209.00
2023-02-13T07:31:14.390Z,216.57
2023-02-13T07:33:42.665Z,204.40
2023-02-13T07:36:11.035Z,196.27
2023-02-13T07:38:39.311Z,188.13
2023-02-13T07:41:07.548Z,169.33
2023-02-13T07:43:35.809Z,186.03
2023-02-13T07:46:04.406Z,166.57
2023-02-13T07:48:34.014Z,142.27
2023-02-13T07:51:02.749Z,147.60
2023-02-13T07:53:31.235Z,130.47
2023-02-13T07:55:59.643Z,131.87
2023-02-13T07:58:28.062Z,115.00
2023-02-13T08:00:56.593Z,124.23
2023-02-13T08:03:24.912Z,128.87
2023-02-13T08:05:54.598Z,101.77
2023-02-13T08:08:22.865Z,103.00
2023-02-13T08:11:08.691Z,97.17
2023-02-13T08:13:37.424Z,116.53
2023-02-13T08:16:06.123Z,112.83
2023-02-13T08:18:34.486Z,101.70
2023-02-13T08:21:05.006Z,105.57
2023-02-13T08:23:33.272Z,98.67
2023-02-13T08:26:02.449Z,107.30
2023-02-13T08:28:31.116Z,103.50
2023-02-13T08:30:59.671Z,94.13
2023-02-13T08:33:27.991Z,92.27
2023-02-13T08:35:56.601Z,94.47
2023-02-13T08:38:26.609Z,97.90
2023-02-13T08:40:57.850Z,99.47
2023-02-13T08:43:26.319Z,98.90
2023-02-13T08:45:54.699Z,101.60
2023-02-13T08:48:22.994Z,93.60
2023-02-13T08:50:51.251Z,93.27
2023-02-13T08:53:19.486Z,78.63
2023-02-13T08:55:55.199Z,80.93
2023-02-13T08:58:23.717Z,72.63
2023-02-13T09:00:52.072Z,75.57
2023-02-13T09:03:20.365Z,82.03
2023-02-13T09:05:48.717Z,84.07
2023-02-13T09:08:18.618Z,73.10
2023-02-13T09:10:47.148Z,80.33
2023-02-13T09:13:16.781Z,79.30
2023-02-13T09:15:45.018Z,81.97
2023-02-13T09:18:13.267Z,84.97
2023-02-13T09:20:41.518Z,98.60
2023-02-13T09:23:09.765Z,100.80
2023-02-13T09:25:38.315Z,90.20
2023-02-13T09:28:06.988Z,88.27
2023-02-13T09:30:36.875Z,87.70
2023-02-13T09:33:05.150Z,87.63
2023-02-13T09:35:33.636Z,81.77
2023-02-13T09:38:02.165Z,91.60
2023-02-13T09:40:33.135Z,95.60
2023-02-13T09:43:05.962Z,84.33
2023-02-13T09:45:34.300Z,86.20
2023-02-13T09:48:03.958Z,75.63
2023-02-13T09:50:33.484Z,78.10
2023-02-13T09:53:01.813Z,72.63
2023-02-13T09:55:37.310Z,72.57
2023-02-13T09:58:20.873Z,69.97
2023-02-13T10:00:51.114Z,66.90
2023-02-13T10:03:23.992Z,67.87
2023-02-13T10:05:57.973Z,75.00
2023-02-13T10:08:41.988Z,64.03
2023-02-13T10:11:17.837Z,58.13
2023-02-13T10:13:52.081Z,59.30
2023-02-13T10:16:22.217Z,56.80
2023-02-13T10:18:53.450Z,67.37
2023-02-13T10:21:23.566Z,72.60
2023-02-13T10:23:56.274Z,75.47
2023-02-13T10:26:27.196Z,72.67
2023-02-13T10:29:11.210Z,73.23
2023-02-13T10:31:40.299Z,63.90
2023-02-13T10:34:13.040Z,68.87
2023-02-13T10:36:43.499Z,50.73
2023-02-13T10:39:20.364Z,58.43
2023-02-13T10:41:51.751Z,59.20
2023-02-13T10:44:40.534Z,61.87
2023-02-13T10:47:15.400Z,61.07
2023-02-13T10:49:51.245Z,53.90
2023-02-13T10:52:25.356Z,53.00
2023-02-13T10:55:06.776Z,43.73
2023-02-13T10:57:41.349Z,53.33
2023-02-13T11:00:12.947Z,50.27
2023-02-13T11:02:41.426Z,70.77
2023-02-13T11:05:17.008Z,80.87
2023-02-13T11:07:46.852Z,100.97
2023-02-13T11:10:17.349Z,95.40
2023-02-13T11:12:45.783Z,74.13
2023-02-13T11:15:24.210Z,76.03
2023-02-13T11:17:52.536Z,65.70
2023-02-13T11:20:31.231Z,96.27
2023-02-13T11:23:12.365Z,95.33
2023-02-13T11:25:40.642Z,89.40
2023-02-13T11:28:10.511Z,77.53
2023-02-13T11:30:39.434Z,86.97
2023-02-13T11:33:08.632Z,75.77
2023-02-13T11:35:38.783Z,85.83
2023-02-13T11:38:15.589Z,76.60
2023-02-13T11:40:45.194Z,72.20
2023-02-13T11:43:18.801Z,66.37
2023-02-13T11:45:48.275Z,76.90
2023-02-13T11:48:22.397Z,69.07
2023-02-13T11:50:56.180Z,60.13
2023-02-13T11:53:25.747Z,65.67
2023-02-13T11:56:05.379Z,55.70
2023-02-13T11:58:33.852Z,56.37
2023-02-13T12:01:24.852Z,50.00
2023-02-13T12:04:03.607Z,55.80
2023-02-13T12:06:39.674Z,55.40
2023-02-13T12:09:12.735Z,52.23
2023-02-13T12:11:43.678Z,53.60
2023-02-13T12:14:12.658Z,54.33
2023-02-13T12:16:42.340Z,56.57
2023-02-13T12:19:13.568Z,49.37
2023-02-13T12:21:50.062Z,49.87
2023-02-13T12:24:24.164Z,44.37
2023-02-13T12:26:53.653Z,51.30
2023-02-13T12:29:44.291Z,50.93
2023-02-13T12:32:16.270Z,55.73
2023-02-13T12:35:16.358Z,53.00
2023-02-13T12:38:00.643Z,55.17
2023-02-13T12:40:41.252Z,46.30
2023-02-13T12:43:19.528Z,47.83
2023-02-13T12:45:49.164Z,48.47
2023-02-13T12:48:27.793Z,48.50
2023-02-13T12:51:04.165Z,57.47
2023-02-13T12:53:52.446Z,57.47
2023-02-13T12:56:27.640Z,67.00
2023-02-13T12:59:01.981Z,74.37
2023-02-13T13:02:07.503Z,67.30
2023-02-13T13:04:43.399Z,68.23
2023-02-13T13:07:30.008Z,68.43
2023-02-13T13:10:04.902Z,73.53
2023-02-13T13:12:40.036Z,79.73
2023-02-13T13:15:11.341Z,69.73
2023-02-13T13:17:49.951Z,79.40
2023-02-13T13:20:39.519Z,79.07
2023-02-13T13:23:10.630Z,76.70
2023-02-13T13:25:44.907Z,79.17
2023-02-13T13:28:15.649Z,75.67
2023-02-13T13:30:44.010Z,68.53
2023-02-13T13:33:15.476Z,80.90
2023-02-13T13:35:43.922Z,90.63
2023-02-13T13:38:14.037Z,94.73
2023-02-13T13:40:47.090Z,81.37
2023-02-13T13:43:21.124Z,80.40
2023-02-13T13:45:51.009Z,76.43
2023-02-13T13:48:43.554Z,82.30
2023-02-13T13:51:12.197Z,60.63
2023-02-13T13:53:44.688Z,72.00
2023-02-13T13:56:14.403Z,70.70
2023-02-13T13:58:44.012Z,65.43
2023-02-13T14:01:24.305Z,81.57
2023-02-13T14:03:53.638Z,68.43
2023-02-13T14:06:22.871Z,62.07
2023-02-13T14:09:02.239Z,62.27
2023-02-13T14:11:41.896Z,59.03
2023-02-13T14:14:52.708Z,39.33
2023-02-13T14:17:50.753Z,38.63
2023-02-13T14:20:24.245Z,40.37
2023-02-13T14:22:52.478Z,41.30
2023-02-13T14:25:25.163Z,46.37
2023-02-13T14:28:02.048Z,40.00
2023-02-13T14:30:31.379Z,38.60
2023-02-13T14:33:01.346Z,26.80
2023-02-13T14:35:31.157Z,25.97
2023-02-13T14:38:00.189Z,26.60
2023-02-13T14:40:34.673Z,24.67
2023-02-13T14:43:22.879Z,26.60
2023-02-13T14:45:53.553Z,22.47
2023-02-13T14:48:21.818Z,25.17
2023-02-13T14:50:51.625Z,21.27
2023-02-13T14:53:25.222Z,23.37
2023-02-13T14:55:58.368Z,18.83
2023-02-13T14:58:30.086Z,17.20
2023-02-13T15:01:01.933Z,19.97
2023-02-13T15:03:32.229Z,15.20
2023-02-13T15:06:02.590Z,18.87
2023-02-13T15:08:32.842Z,17.53
2023-02-13T15:11:01.214Z,17.37
2023-02-13T15:13:35.979Z,18.70
2023-02-13T15:16:05.996Z,16.13
2023-02-13T15:18:36.554Z,16.53
2023-02-13T15:21:05.012Z,17.03
2023-02-13T15:23:34.069Z,16.40
2023-02-13T15:26:02.746Z,13.53
2023-02-13T15:28:31.064Z,13.10
2023-02-13T15:31:02.125Z,13.97
2023-02-13T15:33:33.634Z,11.27
2023-02-13T15:36:02.601Z,12.13
2023-02-13T15:38:31.803Z,12.07
2023-02-13T15:41:01.743Z,13.87
2023-02-13T15:43:34.283Z,12.87
2023-02-13T15:46:05.556Z,20.77
2023-02-13T15:48:34.678Z,23.53
2023-02-13T15:51:03.204Z,17.07
2023-02-13T15:53:31.747Z,16.77
2023-02-13T15:56:01.638Z,18.70
2023-02-13T15:58:31.783Z,23.83
2023-02-13T16:01:04.434Z,20.77
2023-02-13T16:03:33.581Z,14.43
2023-02-13T16:06:01.873Z,9.27
2023-02-13T16:08:35.469Z,7.67
2023-02-13T16:11:29.825Z,8.27
2023-02-13T16:14:04.964Z,10.93
2023-02-13T16:16:35.977Z,8.67
2023-02-13T16:19:04.268Z,10.73
2023-02-13T16:21:34.551Z,12.20
2023-02-13T16:24:04.132Z,16.30
2023-02-13T16:26:32.721Z,13.80
2023-02-13T16:29:00.966Z,12.93
2023-02-13T16:31:29.307Z,16.23
2023-02-13T16:33:59.097Z,15.77
2023-02-13T16:36:31.191Z,17.90
2023-02-13T16:38:59.435Z,16.13
2023-02-13T16:41:31.987Z,16.17
2023-02-13T16:44:00.246Z,20.00
2023-02-13T16:46:33.238Z,14.03
2023-02-13T16:49:17.065Z,18.10
2023-02-13T16:51:46.831Z,18.73
2023-02-13T16:54:29.192Z,21.33
2023-02-13T16:56:58.809Z,23.73
2023-02-13T16:59:52.751Z,31.23
2023-02-13T17:02:22.602Z,28.50
2023-02-13T17:04:53.882Z,21.77
2023-02-13T17:07:24.104Z,16.00
2023-02-13T17:09:56.905Z,15.23
2023-02-13T17:12:25.212Z,20.87
2023-02-13T17:14:53.578Z,21.80
2023-02-13T17:17:22.889Z,21.70
2023-02-13T17:19:52.634Z,22.43
2023-02-13T17:22:32.094Z,22.13
2023-02-13T17:25:00.587Z,24.77
2023-02-13T17:27:28.873Z,25.20
2023-02-13T17:29:57.191Z,27.10
2023-02-13T17:32:26.680Z,26.93
2023-02-13T17:34:56.368Z,29.20
2023-02-13T17:37:25.876Z,27.43
2023-02-13T17:39:54.492Z,26.00
2023-02-13T17:42:24.529Z,26.87
2023-02-13T17:44:53.099Z,24.23
2023-02-13T17:47:21.419Z,26.23
2023-02-13T17:49:50.064Z,23.00
2023-02-13T17:52:20.858Z,26.40
2023-02-13T17:54:49.347Z,27.17
2023-02-13T17:57:18.325Z,26.53
2023-02-13T17:59:46.775Z,23.63
2023-02-13T18:02:15.954Z,23.97
2023-02-13T18:04:44.528Z,23.43
2023-02-13T18:07:13.040Z,21.57
2023-02-13T18:09:42.785Z,28.13
2023-02-13T18:12:14.492Z,23.77
2023-02-13T18:14:42.845Z,24.63
2023-02-13T18:17:11.370Z,25.27
2023-02-13T18:19:39.728Z,27.87
2023-02-13T18:22:08.337Z,32.27
2023-02-13T18:24:39.378Z,37.77
2023-02-13T18:27:09.250Z,40.27
2023-02-13T18:29:37.603Z,38.07
2023-02-13T18:32:08.145Z,41.17
2023-02-13T18:34:38.060Z,40.90
2023-02-13T18:37:06.406Z,36.57
2023-02-13T18:39:34.907Z,42.40
2023-02-13T18:42:03.164Z,64.87
2023-02-13T18:44:33.087Z,59.10
2023-02-13T18:47:01.353Z,46.47
2023-02-13T18:49:29.585Z,60.17
2023-02-13T18:51:57.874Z,62.10
2023-02-13T18:54:26.116Z,43.77
2023-02-13T18:56:54.442Z,46.23
2023-02-13T18:59:23.175Z,43.90
2023-02-13T19:01:52.831Z,42.80
2023-02-13T19:04:21.095Z,43.90
2023-02-13T19:06:49.356Z,41.73
2023-02-13T19:09:17.644Z,41.53
2023-02-13T19:11:47.917Z,39.13
2023-02-13T19:14:16.393Z,41.13
2023-02-13T19:16:44.665Z,43.10
2023-02-13T19:19:14.313Z,39.63
2023-02-13T19:21:42.717Z,42.30
2023-02-13T19:24:12.027Z,48.17
2023-02-13T19:26:40.410Z,49.03
2023-02-13T19:29:08.816Z,40.77
2023-02-13T19:31:37.209Z,42.60
2023-02-13T19:34:06.716Z,46.50
2023-02-13T19:36:36.388Z,52.83
2023-02-13T19:39:06.310Z,51.23
2023-02-13T19:41:34.618Z,45.37
2023-02-13T19:44:02.824Z,57.00
2023-02-13T19:46:31.949Z,59.73
2023-02-13T19:49:00.357Z,68.50
2023-02-13T19:51:29.548Z,59.27
2023-02-13T19:53:59.422Z,61.03
2023-02-13T19:56:27.759Z,59.63
2023-02-13T19:58:56.007Z,60.63
2023-02-13T20:01:25.249Z,62.10
2023-02-13T20:03:53.809Z,57.53
2023-02-13T20:06:22.833Z,58.57
2023-02-13T20:08:51.242Z,55.97
2023-02-13T20:11:21.701Z,53.13
2023-02-13T20:13:49.939Z,53.37
2023-02-13T20:16:18.624Z,56.50
2023-02-13T20:18:46.951Z,57.77
2023-02-13T20:21:16.069Z,58.07
2023-02-13T20:23:44.672Z,60.70
2023-02-13T20:26:14.798Z,58.77
2023-02-13T20:28:45.095Z,60.27
2023-02-13T20:31:14.271Z,59.43
2023-02-13T20:33:43.102Z,58.60
2023-02-13T20:36:12.286Z,56.60
2023-02-13T20:38:40.556Z,56.33
2023-02-13T20:41:09.924Z,59.43
2023-02-13T20:43:38.238Z,61.87
2023-02-13T20:46:08.098Z,61.90
2023-02-13T20:48:37.027Z,61.37
2023-02-13T20:51:06.355Z,67.20
2023-02-13T20:53:34.598Z,70.33
2023-02-13T20:56:04.445Z,76.37
2023-02-13T20:58:32.874Z,77.60
2023-02-13T21:01:01.711Z,74.63
2023-02-13T21:03:31.633Z,68.97
2023-02-13T21:06:00.117Z,66.40
2023-02-13T21:08:28.420Z,68.10
2023-02-13T21:11:01.522Z,73.10
2023-02-13T21:13:29.860Z,73.00
2023-02-13T21:16:06.889Z,73.47
2023-02-13T21:18:36.796Z,72.37
2023-02-13T21:21:05.357Z,71.93
2023-02-13T21:23:33.636Z,84.07
2023-02-13T21:26:03.921Z,84.97
2023-02-13T21:28:32.273Z,80.33
2023-02-13T21:31:01.068Z,94.67
2023-02-13T21:33:29.507Z,90.83
2023-02-13T21:36:06.182Z,85.27
2023-02-13T21:38:34.486Z,89.73
2023-02-13T21:41:08.357Z,94.27
2023-02-13T21:43:37.838Z,90.40
2023-02-13T21:46:09.962Z,81.17
2023-02-13T21:48:38.266Z,80.63
2023-02-13T21:51:08.696Z,94.80
2023-02-13T21:53:36.961Z,89.80
2023-02-13T21:56:07.096Z,91.97
2023-02-13T21:58:35.396Z,91.00
2023-02-13T22:01:04.306Z,89.77
2023-02-13T22:03:32.609Z,90.53
2023-02-13T22:06:00.957Z,94.57
2023-02-13T22:08:30.596Z,87.40
2023-02-13T22:10:59.816Z,83.63
2023-02-13T22:13:28.384Z,93.57
2023-02-13T22:16:02.804Z,87.23
2023-02-13T22:18:32.215Z,93.87
2023-02-13T22:21:01.432Z,98.17
2023-02-13T22:23:31.069Z,92.17
2023-02-13T22:25:59.343Z,90.57
2023-02-13T22:28:27.850Z,90.30
2023-02-13T22:30:56.317Z,89.63
2023-02-13T22:33:24.750Z,96.77
2023-02-13T22:35:53.041Z,87.17
2023-02-13T22:38:21.324Z,87.73
2023-02-13T22:40:51.003Z,89.47
2023-02-13T22:43:19.301Z,89.27
2023-02-13T22:45:47.619Z,90.67
2023-02-13T22:48:15.870Z,85.47
2023-02-13T22:50:44.128Z,84.60
2023-02-13T22:53:12.337Z,85.73
2023-02-13T22:55:40.558Z,85.70
2023-02-13T22:58:10.223Z,93.63
2023-02-13T23:00:38.515Z,92.17
2023-02-13T23:03:06.817Z,89.37
2023-02-13T23:05:35.076Z,92.10
2023-02-13T23:08:03.340Z,88.87
2023-02-13T23:10:31.650Z,91.87
2023-02-13T23:12:58.857Z,97.90
2023-02-13T23:15:28.577Z,100.77
2023-02-13T23:18:13.690Z,105.50
2023-02-13T23:20:42.083Z,98.67
2023-02-13T23:23:10.485Z,104.93
2023-02-13T23:25:38.904Z,96.63
2023-02-13T23:28:07.530Z,109.63
2023-02-13T23:30:37.165Z,106.83
2023-02-13T23:33:05.479Z,118.00
2023-02-13T23:35:33.774Z,106.00
2023-02-13T23:38:01.992Z,107.97
2023-02-13T23:40:30.338Z,106.70
2023-02-13T23:42:58.558Z,105.10
2023-02-13T23:45:26.820Z,83.37
2023-02-13T23:47:56.441Z,79.13
2023-02-13T23:50:24.699Z,72.50
2023-02-13T23:52:52.993Z,79.43
2023-02-13T23:55:21.289Z,78.37
2023-02-13T23:57:52.057Z,79.67
